createdAt,value
2019-05-07T00:01:42.912Z,7.40
2019-05-07T00:06:44.104Z,7.57
2019-05-07T00:11:45.199Z,6.53
2019-05-07T00:16:46.316Z,6.57
2019-05-07T00:21:47.412Z,6.13
2019-05-07T00:26:48.512Z,7.67
2019-05-07T00:31:51.896Z,6.63
2019-05-07T00:36:54.533Z,6.13
2019-05-07T00:41:57.546Z,6.60
2019-05-07T00:46:58.643Z,6.33
2019-05-07T00:51:59.738Z,6.70
2019-05-07T00:57:02.955Z,7.00
2019-05-07T01:02:04.800Z,6.53
2019-05-07T01:07:05.994Z,6.93
2019-05-07T01:12:07.187Z,6.20
2019-05-07T01:17:08.329Z,7.50
2019-05-07T01:22:09.419Z,7.43
2019-05-07T01:27:12.794Z,7.17
2019-05-07T01:32:22.179Z,7.57
2019-05-07T01:37:23.503Z,7.20
2019-05-07T01:42:24.582Z,7.93
2019-05-07T01:47:25.687Z,8.03
2019-05-07T01:52:26.775Z,7.97
2019-05-07T01:57:27.865Z,7.50
2019-05-07T02:02:33.643Z,7.97
2019-05-07T02:07:36.635Z,8.30
2019-05-07T02:12:38.731Z,8.27
2019-05-07T02:17:39.851Z,7.43
2019-05-07T02:22:42.782Z,7.37
2019-05-07T02:27:43.943Z,8.40
2019-05-07T02:32:45.033Z,8.33
2019-05-07T02:37:52.596Z,8.17
2019-05-07T02:42:54.034Z,8.20
2019-05-07T02:47:54.310Z,7.97
2019-05-07T02:53:03.919Z,7.50
2019-05-07T02:58:03.904Z,8.03
2019-05-07T03:03:05.255Z,7.77
2019-05-07T03:08:06.567Z,7.67
2019-05-07T03:13:07.782Z,8.60
2019-05-07T03:18:09.094Z,7.70
2019-05-07T03:23:13.383Z,7.90
2019-05-07T03:28:14.687Z,9.50
2019-05-07T03:33:17.952Z,7.93
2019-05-07T03:38:19.125Z,8.23
2019-05-07T03:43:22.862Z,8.53
2019-05-07T03:48:25.432Z,8.50
2019-05-07T03:53:26.537Z,8.47
2019-05-07T03:58:27.648Z,10.67
2019-05-07T04:03:29.071Z,8.17
2019-05-07T04:08:33.073Z,8.73
2019-05-07T04:13:33.862Z,8.10
2019-05-07T04:18:35.162Z,8.93
2019-05-07T04:23:36.274Z,9.20
2019-05-07T04:28:55.850Z,9.20
2019-05-07T04:33:58.850Z,8.97
2019-05-07T04:39:02.689Z,8.27
2019-05-07T04:44:03.917Z,7.93
2019-05-07T04:49:05.363Z,7.77
2019-05-07T04:54:06.446Z,8.13
2019-05-07T04:59:07.541Z,7.53
2019-05-07T05:04:24.347Z,7.27
2019-05-07T05:09:12.556Z,8.03
2019-05-07T05:14:13.960Z,6.87
2019-05-07T05:19:15.083Z,7.87
2019-05-07T05:24:22.192Z,7.03
2019-05-07T05:29:23.480Z,7.03
2019-05-07T05:34:24.575Z,7.47
2019-05-07T05:39:25.692Z,7.97
2019-05-07T05:44:33.820Z,7.30
2019-05-07T05:49:34.911Z,7.80
2019-05-07T05:54:49.735Z,7.70
2019-05-07T05:59:55.471Z,6.60
2019-05-07T06:05:14.426Z,14.73
2019-05-07T06:10:17.412Z,16.77
2019-05-07T06:15:23.431Z,18.03
2019-05-07T06:20:29.155Z,15.47
2019-05-07T06:25:33.206Z,13.53
2019-05-07T06:30:33.839Z,11.80
2019-05-07T06:35:35.060Z,11.80
2019-05-07T06:40:46.904Z,10.13
2019-05-07T06:45:51.921Z,10.13
2019-05-07T06:50:55.671Z,9.03
2019-05-07T06:55:58.166Z,9.73
2019-05-07T07:01:07.217Z,7.90
2019-05-07T07:06:16.289Z,8.37
2019-05-07T07:11:19.291Z,7.77
2019-05-07T07:16:22.456Z,8.40
2019-05-07T07:21:23.488Z,7.77
2019-05-07T07:26:24.579Z,7.87
2019-05-07T07:31:31.866Z,7.77
2019-05-07T07:36:42.352Z,8.23
2019-05-07T07:41:45.450Z,7.53
2019-05-07T07:46:46.552Z,7.50
2019-05-07T07:51:47.648Z,6.80
2019-05-07T07:56:53.823Z,7.33
2019-05-07T08:01:58.562Z,7.07
2019-05-07T08:07:03.003Z,7.33
2019-05-07T08:12:04.721Z,7.53
2019-05-07T08:17:07.984Z,6.77
2019-05-07T08:22:09.181Z,4.70
2019-05-07T08:27:14.740Z,3.07
2019-05-07T08:32:27.720Z,4.37
2019-05-07T08:37:28.957Z,6.30
2019-05-07T08:42:32.055Z,7.13
2019-05-07T08:47:42.524Z,5.13
2019-05-07T08:52:43.743Z,6.00
2019-05-07T08:57:45.970Z,5.73
2019-05-07T09:02:47.341Z,5.10
2019-05-07T09:07:48.436Z,4.73
2019-05-07T09:12:49.524Z,5.27
2019-05-07T09:17:52.545Z,4.30
2019-05-07T09:22:53.839Z,3.90
2019-05-07T09:27:55.252Z,4.30
2019-05-07T09:32:58.358Z,3.37
2019-05-07T09:37:59.447Z,3.50
2019-05-07T09:43:02.366Z,2.90
2019-05-07T09:48:03.756Z,3.07
2019-05-07T09:53:05.063Z,3.00
2019-05-07T09:58:06.152Z,2.90
2019-05-07T10:03:07.367Z,3.30
2019-05-07T10:08:08.676Z,3.17
2019-05-07T10:13:17.692Z,3.90
2019-05-07T10:18:19.204Z,3.60
2019-05-07T10:23:22.773Z,3.63
2019-05-07T10:28:23.613Z,3.87
2019-05-07T10:33:24.791Z,3.10
2019-05-07T10:38:25.868Z,3.33
2019-05-07T10:43:27.071Z,3.70
2019-05-07T10:48:42.017Z,3.40
2019-05-07T10:53:43.421Z,3.40
2019-05-07T10:58:44.619Z,3.37
2019-05-07T11:03:45.735Z,3.63
2019-05-07T11:08:46.844Z,3.57
2019-05-07T11:13:47.946Z,3.87
2019-05-07T11:18:51.809Z,3.53
2019-05-07T11:23:53.078Z,3.30
2019-05-07T11:28:54.187Z,3.87
2019-05-07T11:33:55.401Z,3.90
2019-05-07T11:38:56.501Z,3.50
2019-05-07T11:44:01.647Z,3.70
2019-05-07T11:49:16.692Z,3.77
2019-05-07T11:54:17.871Z,3.70
2019-05-07T11:59:18.977Z,3.10
2019-05-07T12:04:20.101Z,3.13
2019-05-07T12:09:21.781Z,3.87
2019-05-07T12:14:30.914Z,3.30
2019-05-07T12:19:26.116Z,3.23
2019-05-07T12:24:27.230Z,3.20
2019-05-07T12:29:28.327Z,3.10
2019-05-07T12:34:31.895Z,3.57
2019-05-07T12:39:33.148Z,4.00
2019-05-07T12:44:34.254Z,3.80
2019-05-07T12:49:35.359Z,3.60
2019-05-07T12:54:47.337Z,6.07
2019-05-07T12:59:49.701Z,3.90
2019-05-07T13:04:52.138Z,3.60
2019-05-07T13:09:53.876Z,3.93
2019-05-07T13:14:54.979Z,4.17
2019-05-07T13:19:56.109Z,3.70
2019-05-07T13:24:57.220Z,4.00
2019-05-07T13:29:58.336Z,3.63
2019-05-07T13:35:02.713Z,3.52
2019-05-07T13:40:06.786Z,3.52
2019-05-07T13:45:15.994Z,3.90
2019-05-07T13:50:17.298Z,4.40
2019-05-07T13:55:18.586Z,3.77
2019-05-07T14:00:32.453Z,4.10
2019-05-07T14:05:33.749Z,4.60
2019-05-07T14:10:35.089Z,4.10
2019-05-07T14:15:36.184Z,3.63
2019-05-07T14:20:37.286Z,3.50
2019-05-07T14:25:38.402Z,3.87
2019-05-07T14:30:41.966Z,4.03
2019-05-07T14:35:44.392Z,3.57
2019-05-07T14:40:45.612Z,3.60
2019-05-07T14:45:46.908Z,4.47
2019-05-07T14:50:48.216Z,3.80
2019-05-07T14:55:49.423Z,4.23
2019-05-07T15:00:51.829Z,4.00
2019-05-07T15:05:53.157Z,4.43
2019-05-07T15:10:54.477Z,3.80
2019-05-07T15:15:55.635Z,3.67
2019-05-07T15:20:56.756Z,3.00
2019-05-07T15:25:57.952Z,4.50
2019-05-07T15:31:02.813Z,3.20
2019-05-07T15:36:06.494Z,3.97
2019-05-07T15:41:07.390Z,3.43
2019-05-07T15:46:08.697Z,4.40
2019-05-07T15:51:11.752Z,3.80
2019-05-07T15:56:12.895Z,3.50
2019-05-07T16:01:14.113Z,3.73
2019-05-07T16:06:15.247Z,3.57
2019-05-07T16:11:16.456Z,3.37
2019-05-07T16:16:17.565Z,3.80
2019-05-07T16:21:18.727Z,3.93
2019-05-07T16:26:21.896Z,3.97
2019-05-07T16:31:24.730Z,4.37
2019-05-07T16:36:25.912Z,3.70
2019-05-07T16:41:27.040Z,3.63
2019-05-07T16:46:28.151Z,3.97
2019-05-07T16:51:29.266Z,3.73
2019-05-07T16:56:30.383Z,3.90
2019-05-07T17:01:32.440Z,3.73
2019-05-07T17:06:33.823Z,3.77
2019-05-07T17:11:34.968Z,3.77
2019-05-07T17:16:36.289Z,3.50
2019-05-07T17:21:37.417Z,4.33
2019-05-07T17:26:38.694Z,6.27
2019-05-07T17:31:39.798Z,8.20
2019-05-07T17:36:42.328Z,6.73
2019-05-07T17:41:43.685Z,6.70
2019-05-07T17:46:46.192Z,4.77
2019-05-07T17:51:47.627Z,4.53
2019-05-07T17:56:48.741Z,4.53
2019-05-07T18:01:54.938Z,4.40
2019-05-07T18:06:56.129Z,5.10
2019-05-07T18:11:57.566Z,5.20
2019-05-07T18:17:02.107Z,5.07
2019-05-07T18:22:03.916Z,5.27
2019-05-07T18:27:07.139Z,4.47
2019-05-07T18:32:08.369Z,4.33
2019-05-07T18:37:09.795Z,4.63
2019-05-07T18:42:12.703Z,4.00
2019-05-07T18:47:14.174Z,4.30
2019-05-07T18:52:15.290Z,4.23
2019-05-07T18:57:16.438Z,5.00
2019-05-07T19:02:17.783Z,6.20
2019-05-07T19:07:19.025Z,5.97
2019-05-07T19:12:22.422Z,5.47
2019-05-07T19:17:25.644Z,6.00
2019-05-07T19:22:27.036Z,5.90
2019-05-07T19:27:28.365Z,6.03
2019-05-07T19:32:32.113Z,6.30
2019-05-07T19:37:32.930Z,7.47
2019-05-07T19:42:34.048Z,5.70
2019-05-07T19:47:35.202Z,5.23
2019-05-07T19:52:36.524Z,5.07
2019-05-07T19:57:45.385Z,5.60
2019-05-07T20:02:48.463Z,5.70
2019-05-07T20:07:53.326Z,7.00
2019-05-07T20:12:53.080Z,8.80
2019-05-07T20:17:54.282Z,6.33
2019-05-07T20:22:55.445Z,5.33
2019-05-07T20:28:02.188Z,4.93
2019-05-07T20:33:03.701Z,4.87
2019-05-07T20:38:05.058Z,4.90
2019-05-07T20:43:06.206Z,5.73
2019-05-07T20:48:07.338Z,4.80
2019-05-07T20:53:08.450Z,5.43
2019-05-07T20:58:09.658Z,5.13
2019-05-07T21:03:20.080Z,6.03
2019-05-07T21:08:22.746Z,5.70
2019-05-07T21:13:30.810Z,5.50
2019-05-07T21:18:27.511Z,5.53
2019-05-07T21:23:28.726Z,6.00
2019-05-07T21:28:32.163Z,6.13
2019-05-07T21:33:32.988Z,6.27
2019-05-07T21:38:34.085Z,5.77
2019-05-07T21:43:35.355Z,6.53
2019-05-07T21:48:36.575Z,5.90
2019-05-07T21:53:39.584Z,6.20
2019-05-07T21:58:45.658Z,5.97
2019-05-07T22:03:48.683Z,5.83
2019-05-07T22:08:54.425Z,5.93
2019-05-07T22:13:55.428Z,6.67
2019-05-07T22:18:56.555Z,6.83
2019-05-07T22:23:57.674Z,7.00
2019-05-07T22:28:58.774Z,7.23
2019-05-07T22:34:07.514Z,7.67
2019-05-07T22:39:08.710Z,7.10
2019-05-07T22:44:11.833Z,6.80
2019-05-07T22:49:13.044Z,7.47
2019-05-07T22:54:14.149Z,7.17
2019-05-07T22:59:15.231Z,6.63
2019-05-07T23:04:16.351Z,7.63
2019-05-07T23:09:17.450Z,7.20
2019-05-07T23:14:18.567Z,6.77
2019-05-07T23:19:21.836Z,6.77
2019-05-07T23:24:24.900Z,7.27
2019-05-07T23:29:25.702Z,7.10
2019-05-07T23:34:26.788Z,7.33
2019-05-07T23:39:36.811Z,7.23
2019-05-07T23:44:38.004Z,6.80
2019-05-07T23:49:39.096Z,7.37
2019-05-07T23:54:42.443Z,7.30
2019-05-07T23:59:43.177Z,7.20
